createdAt,value
2022-10-23T16:58:17.651Z,89.87
2022-10-23T17:01:00.917Z,89.92
2022-10-23T17:03:36.482Z,89.85
2022-10-23T17:06:13.141Z,90.46
2022-10-23T17:08:47.869Z,90.85
2022-10-23T17:11:25.147Z,90.26
2022-10-23T17:14:02.431Z,91.15
2022-10-23T17:16:40.110Z,90.71
2022-10-23T17:19:32.747Z,89.77
2022-10-23T17:22:11.241Z,90.07
2022-10-23T17:24:48.696Z,91.12
2022-10-23T17:27:26.201Z,90.62
2022-10-23T17:30:02.424Z,91.29
2022-10-23T17:32:38.353Z,91.55
2022-10-23T17:35:12.673Z,91.55
2022-10-23T17:37:50.127Z,91.98
2022-10-23T17:40:25.832Z,91.90
2022-10-23T17:43:00.537Z,91.72
2022-10-23T17:45:37.207Z,91.50
2022-10-23T17:48:12.416Z,96.80
2022-10-23T17:50:46.779Z,97.04
2022-10-23T17:53:21.411Z,95.79
2022-10-23T17:55:55.713Z,94.37
2022-10-23T17:58:31.042Z,92.85
2022-10-23T18:01:08.194Z,89.12
2022-10-23T18:03:43.137Z,86.51
2022-10-23T18:06:19.899Z,87.30
2022-10-23T18:08:55.508Z,88.39
2022-10-23T18:11:32.477Z,89.17
2022-10-23T18:14:07.673Z,89.66
2022-10-23T18:16:43.479Z,90.27
2022-10-23T18:19:19.638Z,91.07
2022-10-23T18:21:54.441Z,91.32
2022-10-23T18:24:31.128Z,91.85
2022-10-23T18:27:05.596Z,92.20
2022-10-23T18:29:43.452Z,91.87
2022-10-23T18:32:19.179Z,92.57
2022-10-23T18:34:54.278Z,92.66
2022-10-23T18:37:31.783Z,92.67
2022-10-23T18:40:08.437Z,92.68
2022-10-23T18:42:44.130Z,92.77
2022-10-23T18:45:19.364Z,92.82
2022-10-23T18:47:55.180Z,92.60
2022-10-23T18:50:29.895Z,92.60
2022-10-23T18:53:04.413Z,98.12
2022-10-23T18:55:46.390Z,97.64
2022-10-23T18:58:20.926Z,91.93
2022-10-23T19:00:55.659Z,90.69
2022-10-23T19:03:34.855Z,90.53
2022-10-23T19:06:09.863Z,90.57
2022-10-23T19:08:45.613Z,91.26
2022-10-23T19:11:23.646Z,91.05
2022-10-23T19:13:58.642Z,91.37
2022-10-23T19:16:38.763Z,91.89
2022-10-23T19:19:19.132Z,92.48
2022-10-23T19:21:55.490Z,92.28
2022-10-23T19:24:38.003Z,92.46
2022-10-23T19:27:13.043Z,92.66
2022-10-23T19:29:50.750Z,92.76
2022-10-23T19:32:26.090Z,93.04
2022-10-23T19:35:01.669Z,92.74
2022-10-23T19:37:36.168Z,92.75
2022-10-23T19:40:12.311Z,92.87
2022-10-23T19:42:47.154Z,93.04
2022-10-23T19:45:22.750Z,92.62
2022-10-23T19:47:57.615Z,92.64
2022-10-23T19:50:33.306Z,92.95
2022-10-23T19:53:07.901Z,92.85
2022-10-23T19:55:42.207Z,93.20
2022-10-23T19:58:18.836Z,93.37
2022-10-23T20:00:53.155Z,92.71
2022-10-23T20:03:27.775Z,93.26
2022-10-23T20:06:03.486Z,93.59
2022-10-23T20:08:38.048Z,95.21
2022-10-23T20:11:20.316Z,97.35
2022-10-23T20:13:56.293Z,95.32
2022-10-23T20:16:33.223Z,91.69
2022-10-23T20:19:10.990Z,92.81
2022-10-23T20:21:49.454Z,92.78
2022-10-23T20:24:24.087Z,93.39
2022-10-23T20:26:58.631Z,93.43
2022-10-23T20:29:33.205Z,93.58
2022-10-23T20:32:07.887Z,93.68
2022-10-23T20:34:43.219Z,93.90
2022-10-23T20:37:18.631Z,94.19
2022-10-23T20:39:55.983Z,94.54
2022-10-23T20:42:30.381Z,94.41
2022-10-23T20:45:05.424Z,94.59
2022-10-23T20:47:39.912Z,94.50
2022-10-23T20:50:14.523Z,97.24
2022-10-23T20:52:50.258Z,97.80
2022-10-23T20:55:24.815Z,93.39
2022-10-23T20:57:59.272Z,93.09
2022-10-23T21:00:33.772Z,93.26
2022-10-23T21:03:07.875Z,94.13
2022-10-23T21:05:43.580Z,94.75
2022-10-23T21:08:19.168Z,95.16
2022-10-23T21:10:53.516Z,94.87
2022-10-23T21:13:27.958Z,95.08
2022-10-23T21:16:11.863Z,95.32
2022-10-23T21:18:47.088Z,95.95
2022-10-23T21:21:33.171Z,95.37
2022-10-23T21:24:10.680Z,95.59
2022-10-23T21:26:46.212Z,95.00
2022-10-23T21:29:20.737Z,95.54
2022-10-23T21:35:22.766Z,96.87
2022-10-23T21:37:59.548Z,96.66
2022-10-23T21:40:34.988Z,96.98
2022-10-23T21:43:10.813Z,96.87
2022-10-23T21:45:45.508Z,96.78
2022-10-23T21:48:19.951Z,96.98
2022-10-23T21:50:58.507Z,96.80
2022-10-23T21:53:33.340Z,96.90
2022-10-23T21:56:14.619Z,96.87
2022-10-23T21:58:49.017Z,96.77
2022-10-23T22:01:23.204Z,96.83
2022-10-23T22:03:57.984Z,97.32
2022-10-23T22:06:32.539Z,97.03
2022-10-23T22:09:07.959Z,97.20
2022-10-23T22:11:43.829Z,97.00
2022-10-23T22:14:18.370Z,97.06
2022-10-23T22:16:52.518Z,96.94
2022-10-23T22:19:27.108Z,97.25
2022-10-23T22:22:01.125Z,97.27
2022-10-23T22:24:36.610Z,97.63
2022-10-23T22:27:12.017Z,97.98
2022-10-23T22:29:46.478Z,98.12
2022-10-23T22:34:55.741Z,97.84
2022-10-23T22:37:29.780Z,97.31
2022-10-23T22:40:04.248Z,97.81
2022-10-23T22:42:39.796Z,98.05
2022-10-23T22:45:14.169Z,97.67
2022-10-23T22:47:48.295Z,98.07
2022-10-23T22:50:22.680Z,97.73
2022-10-23T22:52:56.774Z,97.55
2022-10-23T22:55:31.217Z,97.78
2022-10-23T22:58:06.664Z,98.11
2022-10-23T23:00:43.574Z,97.81
2022-10-23T23:03:18.306Z,97.73
2022-10-23T23:05:52.672Z,97.07
2022-10-23T23:08:27.040Z,97.71
2022-10-23T23:11:01.525Z,97.50
2022-10-23T23:13:36.992Z,97.96
